Time;durP1;ratioP1;P1;durP2;ratioP2;P2;SDS_P1;SDS_P2;PMS_P1;PMS_P2;Temp;Humidity;BMP_temperature;BMP_pressure;BME280_temperature;BME280_humidity;BME280_pressure;Samples;Min_cycle;Max_cycle;Signal;HPM_P1;HPM_P2
2023/03/21 00:00:11;;;;;;;;;;;;;;;6.31;100.00;96864.53;5041360;28;19964;-68
2023/03/21 00:02:37;;;;;;;;;;;;;;;6.32;100.00;96863.44;5045666;28;19931;-69
2023/03/21 00:05:02;;;;;;;;;;;;;;;6.39;100.00;96860.16;5043378;28;20354;-63
2023/03/21 00:07:27;;;;;;;;;;;;;;;6.38;100.00;96858.56;5054277;28;19924;-67
2023/03/21 00:09:53;;;;;;;;;;;;;;;6.30;100.00;96859.44;5065309;28;19983;-66
2023/03/21 00:12:19;;;;;;;;;;;;;;;6.24;100.00;96845.25;5059776;28;20274;-68
2023/03/21 00:14:45;;;;;;;;;;;;;;;6.03;100.00;96847.19;5046664;28;20377;-68
2023/03/21 00:17:10;;;;;;;;;;;;;;;5.87;100.00;96845.06;5020258;28;19971;-69
2023/03/21 00:19:37;;;;;;;;;;;;;;;5.87;100.00;96844.25;5044286;28;19924;-68
2023/03/21 00:22:03;;;;;;;;;;;;;;;5.77;100.00;96848.19;5041573;28;19920;-67
2023/03/21 00:24:28;;;;;;;;;;;;;;;5.60;100.00;96837.44;5042468;28;20388;-69
2023/03/21 00:26:53;;;;;;;;;;;;;;;5.44;100.00;96834.50;5042940;28;19927;-67
2023/03/21 00:29:19;;;;;;;;;;;;;;;5.35;100.00;96835.38;5039305;28;19920;-67
2023/03/21 00:31:44;;;;;;;;;;;;;;;5.34;100.00;96836.47;5045466;28;19963;-69
2023/03/21 00:34:09;;;;;;;;;;;;;;;5.48;100.00;96830.03;5039548;28;19917;-66
2023/03/21 00:36:36;;;;;;;;;;;;;;;5.55;100.00;96831.06;5042768;28;19924;-68
2023/03/21 00:39:01;;;;;;;;;;;;;;;5.64;100.00;96830.22;5042880;28;19982;-69
2023/03/21 00:41:27;;;;;;;;;;;;;;;5.72;100.00;96815.75;5038871;28;19956;-69
2023/03/21 00:43:54;;;;;;;;;;;;;;;5.78;100.00;96819.06;5043317;28;19986;-67
2023/03/21 00:46:19;;;;;;;;;;;;;;;5.83;100.00;96822.38;5038139;28;19923;-68
2023/03/21 00:48:45;;;;;;;;;;;;;;;5.91;100.00;96831.63;5044050;28;19925;-66
2023/03/21 00:51:12;;;;;;;;;;;;;;;5.95;100.00;96824.38;5055621;28;20000;-67
2023/03/21 00:53:37;;;;;;;;;;;;;;;5.96;100.00;96823.28;5062614;28;19920;-69
2023/03/21 00:56:02;;;;;;;;;;;;;;;5.98;100.00;96820.22;5042187;28;19916;-63
2023/03/21 00:58:28;;;;;;;;;;;;;;;6.00;100.00;96821.50;5040005;28;20298;-68
2023/03/21 01:00:53;;;;;;;;;;;;;;;5.99;100.00;96821.81;5043000;28;19917;-67
2023/03/21 01:03:19;;;;;;;;;;;;;;;5.91;100.00;96818.81;5038549;28;20281;-66
2023/03/21 01:06:05;;;;;;;;;;;;;;;5.94;100.00;96823.59;5043145;28;20424;-67
2023/03/21 01:08:32;;;;;;;;;;;;;;;6.05;100.00;96823.19;5057564;28;19920;-63
2023/03/21 01:11:00;;;;;;;;;;;;;;;6.17;100.00;96820.53;5048218;28;19924;-67
2023/03/21 01:13:26;;;;;;;;;;;;;;;6.06;100.00;96817.41;5038605;28;20028;-65
2023/03/21 01:15:53;;;;;;;;;;;;;;;6.08;100.00;96817.88;5042861;28;20003;-66
2023/03/21 01:18:20;;;;;;;;;;;;;;;5.93;100.00;96813.84;5046117;28;19916;-69
2023/03/21 01:20:46;;;;;;;;;;;;;;;5.71;100.00;96814.19;5062708;28;19920;-67
2023/03/21 01:23:12;;;;;;;;;;;;;;;5.46;100.00;96813.25;5042064;28;20370;-69
2023/03/21 01:25:38;;;;;;;;;;;;;;;5.44;100.00;96813.59;5049325;28;19917;-68
2023/03/21 01:28:04;;;;;;;;;;;;;;;5.52;100.00;96815.44;5059666;28;20270;-63
2023/03/21 01:30:29;;;;;;;;;;;;;;;5.63;100.00;96813.09;5054830;28;19927;-69
2023/03/21 01:32:54;;;;;;;;;;;;;;;5.66;100.00;96812.47;5051826;28;19917;-67
2023/03/21 01:35:20;;;;;;;;;;;;;;;5.75;100.00;96805.03;5052327;28;20019;-67
2023/03/21 01:37:47;;;;;;;;;;;;;;;5.83;100.00;96803.34;5041169;28;19952;-68
2023/03/21 01:40:16;;;;;;;;;;;;;;;5.92;100.00;96800.56;5037470;28;19920;-68
2023/03/21 01:42:42;;;;;;;;;;;;;;;6.01;100.00;96793.16;5043308;28;20602;-65
2023/03/21 01:45:27;;;;;;;;;;;;;;;6.07;100.00;96796.47;5036848;28;20011;-68
2023/03/21 01:47:52;;;;;;;;;;;;;;;5.91;100.00;96791.63;5048789;28;20439;-67
2023/03/21 01:50:21;;;;;;;;;;;;;;;5.85;100.00;96784.81;5056364;28;19916;-69
2023/03/21 01:52:48;;;;;;;;;;;;;;;5.80;100.00;96781.47;5062002;28;20377;-70
2023/03/21 01:55:15;;;;;;;;;;;;;;;5.70;100.00;96772.63;5045675;28;19971;-70
2023/03/21 01:57:51;;;;;;;;;;;;;;;5.64;100.00;96773.16;5041704;28;20439;-69
2023/03/21 02:00:17;;;;;;;;;;;;;;;5.69;100.00;96768.31;5037899;28;19917;-68
2023/03/21 02:02:53;;;;;;;;;;;;;;;5.64;100.00;96778.59;5042217;28;19946;-67
2023/03/21 02:05:26;;;;;;;;;;;;;;;5.55;100.00;96781.38;5037039;28;19964;-69
2023/03/21 02:07:52;;;;;;;;;;;;;;;5.48;100.00;96773.75;5055366;28;19931;-69
2023/03/21 02:10:17;;;;;;;;;;;;;;;5.58;100.00;96777.19;5056248;28;20667;-67
2023/03/21 02:12:42;;;;;;;;;;;;;;;5.61;100.00;96771.91;5060494;28;19921;-68
2023/03/21 02:15:08;;;;;;;;;;;;;;;5.64;100.00;96771.25;5057324;28;19981;-68
2023/03/21 02:17:41;;;;;;;;;;;;;;;5.64;100.00;96770.44;5060964;28;19921;-67
2023/03/21 02:20:07;;;;;;;;;;;;;;;5.57;100.00;96762.03;5056812;28;19931;-68
2023/03/21 02:22:59;;;;;;;;;;;;;;;5.57;100.00;96776.41;5061264;28;19916;-69
2023/03/21 02:25:27;;;;;;;;;;;;;;;5.58;100.00;96766.31;5056782;28;19927;-65
2023/03/21 02:28:02;;;;;;;;;;;;;;;5.60;100.00;96764.88;5060249;28;20003;-68
2023/03/21 02:30:33;;;;;;;;;;;;;;;5.63;100.00;96766.13;5073335;28;20334;-69
2023/03/21 02:33:01;;;;;;;;;;;;;;;5.66;100.00;96768.19;5061600;28;19967;-67
2023/03/21 02:35:45;;;;;;;;;;;;;;;5.65;100.00;96763.88;5050625;28;19917;-68
2023/03/21 02:38:29;;;;;;;;;;;;;;;5.66;100.00;96760.81;5043266;28;20344;-66
2023/03/21 02:41:14;;;;;;;;;;;;;;;5.63;100.00;96761.47;5062257;28;19916;-66
2023/03/21 02:43:40;;;;;;;;;;;;;;;5.68;100.00;96761.28;5040485;28;19929;-67
2023/03/21 02:46:26;;;;;;;;;;;;;;;5.60;100.00;96756.72;5035995;28;19924;-67
2023/03/21 02:49:14;;;;;;;;;;;;;;;5.46;100.00;96761.66;5055429;28;20326;-67
2023/03/21 02:51:41;;;;;;;;;;;;;;;5.48;100.00;96762.09;5050296;28;19924;-68
2023/03/21 02:54:09;;;;;;;;;;;;;;;5.59;100.00;96760.56;5060295;28;19916;-68
2023/03/21 02:56:35;;;;;;;;;;;;;;;5.68;100.00;96758.56;5081721;28;20381;-65
2023/03/21 02:59:02;;;;;;;;;;;;;;;5.74;100.00;96759.97;5063638;28;20297;-66
2023/03/21 03:01:28;;;;;;;;;;;;;;;5.85;100.00;96757.63;5057878;28;19916;-67
2023/03/21 03:03:53;;;;;;;;;;;;;;;5.83;100.00;96742.78;5064111;28;19978;-68
2023/03/21 03:06:25;;;;;;;;;;;;;;;5.83;100.00;96751.72;5062131;28;19916;-69
2023/03/21 03:09:06;;;;;;;;;;;;;;;5.86;100.00;96750.25;5052459;28;19921;-68
2023/03/21 03:11:31;;;;;;;;;;;;;;;5.86;100.00;96742.13;5064501;28;20313;-69
2023/03/21 03:14:05;;;;;;;;;;;;;;;5.87;100.00;96749.13;5064881;28;19931;-69
2023/03/21 03:16:35;;;;;;;;;;;;;;;5.88;100.00;96746.06;5065203;28;19970;-68
2023/03/21 03:19:02;;;;;;;;;;;;;;;5.85;100.00;96748.66;5065644;28;19943;-68
2023/03/21 03:21:36;;;;;;;;;;;;;;;5.81;100.00;96745.03;5061952;28;19917;-67
2023/03/21 03:24:34;;;;;;;;;;;;;;;5.79;100.00;96747.28;5063877;28;19928;-67
2023/03/21 03:27:09;;;;;;;;;;;;;;;5.81;100.00;96745.03;5018880;28;19974;-68
2023/03/21 03:29:37;;;;;;;;;;;;;;;5.85;100.00;96748.66;5064363;28;19927;-68
2023/03/21 03:32:10;;;;;;;;;;;;;;;5.77;100.00;96746.84;5061452;28;19942;-63
2023/03/21 03:34:39;;;;;;;;;;;;;;;5.65;100.00;96751.06;5064531;28;19924;-69
2023/03/21 03:37:06;;;;;;;;;;;;;;;5.65;100.00;96744.84;5058061;28;19923;-65
2023/03/21 03:39:36;;;;;;;;;;;;;;;5.65;100.00;96744.84;5064444;28;19969;-68
2023/03/21 03:42:07;;;;;;;;;;;;;;;5.65;100.00;96748.34;5063994;28;19927;-64
2023/03/21 03:44:33;;;;;;;;;;;;;;;5.64;100.00;96752.22;5064610;28;19960;-69
2023/03/21 03:47:01;;;;;;;;;;;;;;;5.46;100.00;96754.28;5059130;28;20037;-69
2023/03/21 03:49:28;;;;;;;;;;;;;;;5.46;100.00;96750.78;5059715;28;19927;-69
2023/03/21 03:51:57;;;;;;;;;;;;;;;5.49;100.00;96747.38;5064449;28;19981;-68
2023/03/21 03:54:26;;;;;;;;;;;;;;;5.36;100.00;96749.25;5059882;28;19951;-68
2023/03/21 03:56:52;;;;;;;;;;;;;;;5.13;100.00;96754.19;5064477;28;19924;-67
2023/03/21 03:59:26;;;;;;;;;;;;;;;5.01;100.00;96740.56;5059775;28;20353;-66
2023/03/21 04:01:51;;;;;;;;;;;;;;;5.12;100.00;96741.75;5064644;28;20303;-68
2023/03/21 04:04:17;;;;;;;;;;;;;;;5.11;100.00;96745.59;5077599;28;19920;-68
2023/03/21 04:06:44;;;;;;;;;;;;;;;4.63;100.00;96744.91;5070086;28;20292;-68
2023/03/21 04:09:09;;;;;;;;;;;;;;;4.03;100.00;96749.41;5059649;28;19920;-68
2023/03/21 04:11:35;;;;;;;;;;;;;;;3.95;100.00;96752.97;5064967;28;19920;-68
2023/03/21 04:14:01;;;;;;;;;;;;;;;3.92;100.00;96748.97;5063494;28;19920;-68
2023/03/21 04:16:27;;;;;;;;;;;;;;;3.94;100.00;96751.34;5057780;28;19917;-68
2023/03/21 04:18:52;;;;;;;;;;;;;;;4.05;100.00;96744.47;5064355;28;19916;-68
2023/03/21 04:21:18;;;;;;;;;;;;;;;4.09;100.00;96739.19;5058476;28;19916;-69
2023/03/21 04:23:43;;;;;;;;;;;;;;;4.13;100.00;96737.44;5063881;28;19960;-69
2023/03/21 04:26:08;;;;;;;;;;;;;;;4.19;100.00;96736.13;5056621;28;20274;-68
2023/03/21 04:28:35;;;;;;;;;;;;;;;4.08;100.00;96748.47;5066184;28;19959;-69
2023/03/21 04:31:01;;;;;;;;;;;;;;;4.11;100.00;96745.91;5077484;28;19959;-67
2023/03/21 04:33:27;;;;;;;;;;;;;;;4.30;100.00;96736.59;5051930;28;20298;-67
2023/03/21 04:35:55;;;;;;;;;;;;;;;4.44;100.00;96736.38;5043791;28;19970;-69
2023/03/21 04:38:21;;;;;;;;;;;;;;;4.57;100.00;96747.00;5039278;28;19917;-67
2023/03/21 04:40:46;;;;;;;;;;;;;;;4.56;100.00;96736.50;5043899;28;19921;-67
2023/03/21 04:43:12;;;;;;;;;;;;;;;4.66;100.00;96738.81;5039124;28;19917;-69
2023/03/21 04:45:37;;;;;;;;;;;;;;;4.53;100.00;96740.63;5043105;28;19944;-68
2023/03/21 04:48:03;;;;;;;;;;;;;;;4.48;100.00;96740.81;5033494;28;20003;-63
2023/03/21 04:50:28;;;;;;;;;;;;;;;4.56;100.00;96748.13;5042385;28;19921;-68
2023/03/21 04:52:54;;;;;;;;;;;;;;;4.75;100.00;96747.72;5044522;28;19924;-67
2023/03/21 04:55:20;;;;;;;;;;;;;;;4.92;100.00;96748.75;5040694;28;19927;-67
2023/03/21 04:57:45;;;;;;;;;;;;;;;4.84;100.00;96746.88;5057304;28;19917;-67
2023/03/21 05:00:13;;;;;;;;;;;;;;;4.90;100.00;96753.72;5041102;28;19985;-68
2023/03/21 05:02:38;;;;;;;;;;;;;;;5.07;100.00;96756.31;5042939;28;19921;-68
2023/03/21 05:05:04;;;;;;;;;;;;;;;5.19;100.00;96752.88;5054443;28;19921;-62
2023/03/21 05:07:31;;;;;;;;;;;;;;;5.24;100.00;96755.41;5042855;28;19970;-68
2023/03/21 05:09:56;;;;;;;;;;;;;;;5.23;100.00;96742.16;5043365;28;19917;-68
2023/03/21 05:12:22;;;;;;;;;;;;;;;5.27;100.00;96743.88;5038006;28;19947;-66
2023/03/21 05:14:47;;;;;;;;;;;;;;;5.29;100.00;96748.97;5042973;28;19943;-69
2023/03/21 05:17:21;;;;;;;;;;;;;;;5.21;100.00;96747.91;5036067;28;19928;-69
2023/03/21 05:19:49;;;;;;;;;;;;;;;5.15;100.00;96747.31;5043117;28;19924;-69
2023/03/21 05:22:18;;;;;;;;;;;;;;;5.22;100.00;96737.84;5038281;28;19989;-67
2023/03/21 05:24:48;;;;;;;;;;;;;;;5.29;100.00;96735.41;5042412;28;19916;-68
2023/03/21 05:27:34;;;;;;;;;;;;;;;5.31;100.00;96742.09;5036725;28;19924;-68
2023/03/21 05:30:00;;;;;;;;;;;;;;;5.24;100.00;96741.84;5042508;28;19920;-68
2023/03/21 05:32:26;;;;;;;;;;;;;;;5.17;100.00;96741.56;5037633;28;20267;-70
2023/03/21 05:34:51;;;;;;;;;;;;;;;5.22;100.00;96735.94;5043101;28;19935;-69
2023/03/21 05:37:16;;;;;;;;;;;;;;;5.32;100.00;96740.16;5038781;28;20010;-70
2023/03/21 05:39:42;;;;;;;;;;;;;;;5.43;100.00;96746.00;5043308;28;19923;-69
2023/03/21 05:42:07;;;;;;;;;;;;;;;5.57;100.00;96753.88;5037555;28;19978;-67
2023/03/21 05:44:32;;;;;;;;;;;;;;;5.63;100.00;96741.69;5042311;28;20011;-69
2023/03/21 05:46:58;;;;;;;;;;;;;;;5.48;100.00;96749.31;5035490;28;19925;-68
2023/03/21 05:49:23;;;;;;;;;;;;;;;5.52;100.00;96749.44;5032338;28;19917;-68
2023/03/21 05:51:49;;;;;;;;;;;;;;;5.48;100.00;96748.53;5023163;28;20007;-70
2023/03/21 05:54:15;;;;;;;;;;;;;;;5.39;100.00;96745.09;5021886;28;19920;-68
2023/03/21 05:56:41;;;;;;;;;;;;;;;5.30;100.00;96745.16;5041817;28;19971;-68
2023/03/21 05:59:06;;;;;;;;;;;;;;;5.32;100.00;96745.59;5040812;28;19978;-69
2023/03/21 06:01:31;;;;;;;;;;;;;;;5.43;100.00;96744.06;5041484;28;20427;-69
2023/03/21 06:03:56;;;;;;;;;;;;;;;5.63;100.00;96747.91;5040425;28;20026;-69
2023/03/21 06:06:22;;;;;;;;;;;;;;;5.76;100.00;96748.75;5036127;28;20416;-67
2023/03/21 06:08:47;;;;;;;;;;;;;;;5.77;100.00;96747.63;5042628;28;20090;-69
2023/03/21 06:11:19;;;;;;;;;;;;;;;5.83;100.00;96743.56;5022380;28;20298;-68
2023/03/21 06:13:44;;;;;;;;;;;;;;;5.90;100.00;96737.59;5021918;28;20378;-66
2023/03/21 06:16:10;;;;;;;;;;;;;;;6.07;100.00;96736.66;5017069;28;19917;-67
2023/03/21 06:18:36;;;;;;;;;;;;;;;6.13;100.00;96740.75;5022017;28;19927;-68
2023/03/21 06:21:01;;;;;;;;;;;;;;;6.29;100.00;96740.91;5022493;28;20026;-68
2023/03/21 06:23:27;;;;;;;;;;;;;;;6.46;100.00;96740.69;5016990;28;19964;-67
2023/03/21 06:25:52;;;;;;;;;;;;;;;6.65;100.00;96734.69;5018749;28;20278;-66
2023/03/21 06:28:17;;;;;;;;;;;;;;;6.70;100.00;96745.34;5015907;28;19917;-67
2023/03/21 06:30:42;;;;;;;;;;;;;;;6.73;100.00;96743.88;5023056;28;19924;-67
2023/03/21 06:33:07;;;;;;;;;;;;;;;7.01;100.00;96746.69;5017584;28;20332;-67
2023/03/21 06:35:33;;;;;;;;;;;;;;;7.37;100.00;96750.50;5019487;28;19924;-67
2023/03/21 06:37:58;;;;;;;;;;;;;;;7.86;100.00;96749.53;5021978;28;19917;-67
2023/03/21 06:40:24;;;;;;;;;;;;;;;8.21;100.00;96752.44;5020223;28;19917;-68
2023/03/21 06:42:49;;;;;;;;;;;;;;;8.31;100.00;96745.66;5024644;28;19960;-67
2023/03/21 06:45:14;;;;;;;;;;;;;;;8.41;100.00;96750.63;5018323;28;19996;-68
2023/03/21 06:47:40;;;;;;;;;;;;;;;8.59;100.00;96753.03;5029830;28;19971;-68
2023/03/21 06:50:05;;;;;;;;;;;;;;;8.59;100.00;96748.38;5040278;28;19924;-68
2023/03/21 06:52:31;;;;;;;;;;;;;;;8.84;100.00;96752.84;5044406;28;19970;-67
2023/03/21 06:54:56;;;;;;;;;;;;;;;8.62;100.00;96746.84;5044511;28;20069;-69
2023/03/21 06:57:22;;;;;;;;;;;;;;;8.69;100.00;96755.22;5041271;28;19925;-67
2023/03/21 06:59:47;;;;;;;;;;;;;;;9.04;100.00;96754.50;5045973;28;20012;-67
2023/03/21 07:02:12;;;;;;;;;;;;;;;9.43;100.00;96757.31;5041714;28;19924;-67
2023/03/21 07:04:38;;;;;;;;;;;;;;;9.77;100.00;96765.84;5026707;28;20078;-68
2023/03/21 07:07:03;;;;;;;;;;;;;;;10.12;98.86;96760.28;5040253;28;19924;-66
2023/03/21 07:09:28;;;;;;;;;;;;;;;10.33;96.80;96768.13;5043869;28;19921;-67
2023/03/21 07:11:54;;;;;;;;;;;;;;;10.52;93.54;96764.56;5026071;28;20007;-67
2023/03/21 07:14:19;;;;;;;;;;;;;;;10.54;94.67;96760.66;5021920;28;19917;-68
2023/03/21 07:16:44;;;;;;;;;;;;;;;10.89;92.28;96760.47;5031456;28;19994;-68
2023/03/21 07:19:09;;;;;;;;;;;;;;;11.22;90.04;96759.81;5021405;28;19918;-67
2023/03/21 07:21:35;;;;;;;;;;;;;;;11.51;87.43;96762.16;5027310;28;19917;-68
2023/03/21 07:24:00;;;;;;;;;;;;;;;11.84;84.38;96758.66;5029331;28;19940;-68
2023/03/21 07:26:25;;;;;;;;;;;;;;;12.05;84.39;96747.97;5020789;28;19925;-68
2023/03/21 07:28:51;;;;;;;;;;;;;;;11.94;84.69;96762.72;5023402;28;20294;-68
2023/03/21 07:31:16;;;;;;;;;;;;;;;11.63;86.10;96751.75;5020605;28;19924;-68
2023/03/21 07:33:42;;;;;;;;;;;;;;;12.26;84.98;96760.34;5025293;28;19921;-68
2023/03/21 07:36:14;;;;;;;;;;;;;;;13.51;76.93;96763.38;5018886;28;19933;-69
2023/03/21 07:38:40;;;;;;;;;;;;;;;14.92;67.49;96759.09;5024153;28;19972;-69
2023/03/21 07:41:05;;;;;;;;;;;;;;;16.25;61.10;96756.81;5020296;28;20037;-68
2023/03/21 07:43:30;;;;;;;;;;;;;;;14.89;64.34;96760.69;5024394;28;19932;-69
2023/03/21 07:45:57;;;;;;;;;;;;;;;17.07;56.33;96751.97;5024611;28;20312;-68
2023/03/21 07:48:22;;;;;;;;;;;;;;;18.04;52.47;96758.50;5030191;28;20668;-68
2023/03/21 07:50:48;;;;;;;;;;;;;;;18.39;50.13;96757.28;5043323;28;20003;-69
2023/03/21 07:53:13;;;;;;;;;;;;;;;18.37;48.26;96765.22;5039435;28;19921;-69
2023/03/21 07:55:38;;;;;;;;;;;;;;;17.01;52.72;96764.66;5044444;28;19924;-69
2023/03/21 07:58:04;;;;;;;;;;;;;;;16.20;55.61;96759.22;5041017;28;19916;-66
2023/03/21 08:00:29;;;;;;;;;;;;;;;15.92;56.63;96749.06;5044183;28;19975;-67
2023/03/21 08:02:55;;;;;;;;;;;;;;;16.04;56.28;96754.16;5042607;28;20290;-69
2023/03/21 08:05:21;;;;;;;;;;;;;;;17.94;49.17;96754.69;5038868;28;19936;-68
2023/03/21 08:07:46;;;;;;;;;;;;;;;17.27;52.35;96754.16;5044865;28;19951;-69
2023/03/21 08:10:12;;;;;;;;;;;;;;;18.88;48.03;96757.75;5037674;28;19920;-68
2023/03/21 08:12:37;;;;;;;;;;;;;;;18.85;47.75;96752.28;5043335;28;19999;-69
2023/03/21 08:15:03;;;;;;;;;;;;;;;20.11;45.03;96748.03;5041415;28;20391;-67
2023/03/21 08:17:28;;;;;;;;;;;;;;;20.47;44.64;96749.28;5042499;28;19955;-69
2023/03/21 08:19:53;;;;;;;;;;;;;;;19.95;45.52;96753.53;5055726;28;20377;-69
2023/03/21 08:22:18;;;;;;;;;;;;;;;18.87;48.00;96752.63;5054287;28;20062;-69
2023/03/21 08:24:43;;;;;;;;;;;;;;;19.44;47.14;96750.91;5043861;28;19917;-69
2023/03/21 08:27:09;;;;;;;;;;;;;;;18.32;48.71;96755.38;5038962;28;19921;-68
2023/03/21 08:29:39;;;;;;;;;;;;;;;17.91;49.38;96747.19;5042641;28;19928;-69
2023/03/21 08:32:04;;;;;;;;;;;;;;;17.13;51.77;96753.09;5036884;28;20016;-67
2023/03/21 08:34:30;;;;;;;;;;;;;;;16.65;53.70;96747.50;5042503;28;20007;-69
2023/03/21 08:36:56;;;;;;;;;;;;;;;16.43;54.72;96747.66;5043700;28;19920;-69
2023/03/21 08:39:22;;;;;;;;;;;;;;;16.27;56.21;96748.13;5035775;28;19994;-68
2023/03/21 08:41:48;;;;;;;;;;;;;;;15.57;58.33;96748.75;5048268;28;19924;-68
2023/03/21 08:44:13;;;;;;;;;;;;;;;14.35;62.70;96740.50;5039115;28;20293;-67
2023/03/21 08:46:38;;;;;;;;;;;;;;;14.03;64.46;96738.44;5043107;28;19968;-67
2023/03/21 08:49:04;;;;;;;;;;;;;;;14.40;64.08;96740.09;5037478;28;19920;-67
2023/03/21 08:51:30;;;;;;;;;;;;;;;13.90;66.03;96743.50;5039281;28;19971;-68
2023/03/21 08:53:55;;;;;;;;;;;;;;;14.21;64.58;96740.47;5025655;28;19921;-68
2023/03/21 08:56:21;;;;;;;;;;;;;;;14.22;64.67;96742.03;5030650;28;20818;-67
2023/03/21 08:58:46;;;;;;;;;;;;;;;13.41;69.63;96739.31;5044686;28;19931;-68
2023/03/21 09:01:14;;;;;;;;;;;;;;;13.44;69.24;96741.31;5037855;28;19921;-68
2023/03/21 09:03:40;;;;;;;;;;;;;;;13.47;70.10;96740.56;5042382;28;19917;-68
2023/03/21 09:06:09;;;;;;;;;;;;;;;13.76;69.25;96741.47;5038799;28;20035;-68
2023/03/21 09:08:34;;;;;;;;;;;;;;;13.66;68.48;96739.47;5041844;28;20012;-68
2023/03/21 09:11:00;;;;;;;;;;;;;;;13.61;68.93;96731.56;5042458;28;20056;-68
2023/03/21 09:13:25;;;;;;;;;;;;;;;13.05;71.21;96733.56;5038102;28;19960;-68
2023/03/21 09:15:51;;;;;;;;;;;;;;;13.38;69.58;96734.63;5042350;28;19972;-67
2023/03/21 09:18:21;;;;;;;;;;;;;;;13.55;69.92;96733.91;5037257;28;19921;-68
2023/03/21 09:20:46;;;;;;;;;;;;;;;13.81;67.95;96734.81;5043292;28;19932;-67
2023/03/21 09:23:12;;;;;;;;;;;;;;;14.33;65.61;96740.09;5037810;28;19925;-69
2023/03/21 09:25:39;;;;;;;;;;;;;;;14.69;63.07;96740.97;5042442;28;20488;-69
2023/03/21 09:28:04;;;;;;;;;;;;;;;14.44;63.94;96731.84;5037038;28;20374;-66
2023/03/21 09:30:31;;;;;;;;;;;;;;;14.67;61.83;96726.78;5042933;28;19928;-69
2023/03/21 09:33:00;;;;;;;;;;;;;;;14.39;63.21;96730.28;5041966;28;19932;-69
2023/03/21 09:35:27;;;;;;;;;;;;;;;13.83;64.77;96726.97;5040744;28;19932;-67
2023/03/21 09:37:53;;;;;;;;;;;;;;;13.98;64.01;96727.03;5043597;28;20385;-69
2023/03/21 09:40:22;;;;;;;;;;;;;;;14.92;63.06;96728.75;5040498;28;19917;-67
2023/03/21 09:43:11;;;;;;;;;;;;;;;15.81;59.58;96719.53;5042648;28;19924;-69
2023/03/21 09:45:44;;;;;;;;;;;;;;;17.24;54.38;96724.53;5060920;28;19951;-68
2023/03/21 09:48:16;;;;;;;;;;;;;;;17.43;52.83;96715.66;5057165;28;20385;-67
2023/03/21 09:50:42;;;;;;;;;;;;;;;18.48;49.43;96720.72;5061938;28;19923;-67
2023/03/21 09:53:14;;;;;;;;;;;;;;;18.52;48.20;96722.22;5057342;28;19921;-67
2023/03/21 09:55:40;;;;;;;;;;;;;;;17.71;48.80;96722.06;5061416;28;19917;-69
2023/03/21 09:58:14;;;;;;;;;;;;;;;16.20;53.03;96717.78;5057432;28;20019;-67
2023/03/21 10:00:45;;;;;;;;;;;;;;;16.82;51.56;96719.72;5062691;28;20034;-69
2023/03/21 10:03:24;;;;;;;;;;;;;;;16.80;50.11;96724.88;5059623;28;19924;-66
2023/03/21 10:05:51;;;;;;;;;;;;;;;17.16;49.83;96721.84;5063225;28;19936;-69
2023/03/21 10:08:33;;;;;;;;;;;;;;;17.49;49.97;96710.44;5056794;28;20285;-69
2023/03/21 10:11:09;;;;;;;;;;;;;;;17.54;50.85;96713.53;5061763;28;20254;-68
2023/03/21 10:13:39;;;;;;;;;;;;;;;18.45;47.21;96713.22;5060921;28;19916;-69
2023/03/21 10:16:26;;;;;;;;;;;;;;;18.56;46.66;96710.28;5056770;28;19916;-68
2023/03/21 10:18:52;;;;;;;;;;;;;;;18.43;47.01;96713.63;5059744;28;19981;-69
2023/03/21 10:21:27;;;;;;;;;;;;;;;16.78;49.65;96707.09;5072411;28;19923;-68
2023/03/21 10:23:55;;;;;;;;;;;;;;;16.62;50.77;96704.88;5061128;28;19923;-68
2023/03/21 10:26:22;;;;;;;;;;;;;;;17.24;49.58;96708.72;5056603;28;19944;-68
2023/03/21 10:28:48;;;;;;;;;;;;;;;16.80;49.98;96696.44;5062532;28;19922;-68
2023/03/21 10:31:17;;;;;;;;;;;;;;;16.38;51.09;96695.56;5057842;28;19916;-68
2023/03/21 10:33:44;;;;;;;;;;;;;;;16.38;50.86;96693.56;5061910;28;20263;-67
2023/03/21 10:36:19;;;;;;;;;;;;;;;16.62;50.84;96697.38;5055125;28;19920;-66
2023/03/21 10:38:58;;;;;;;;;;;;;;;16.56;50.74;96696.22;5060484;28;20356;-68
2023/03/21 10:41:23;;;;;;;;;;;;;;;15.65;53.05;96700.63;5056615;28;19923;-69
2023/03/21 10:44:07;;;;;;;;;;;;;;;16.29;52.12;96695.22;5062119;28;20015;-68
2023/03/21 10:46:34;;;;;;;;;;;;;;;16.42;51.98;96691.59;5060843;28;19971;-68
2023/03/21 10:49:00;;;;;;;;;;;;;;;16.66;52.11;96689.03;5061563;28;20102;-67
2023/03/21 10:51:34;;;;;;;;;;;;;;;16.10;53.38;96694.53;5056196;28;20015;-68
2023/03/21 10:54:04;;;;;;;;;;;;;;;15.76;54.56;96695.09;5061320;28;20320;-68
2023/03/21 10:56:34;;;;;;;;;;;;;;;15.76;55.37;96689.56;5059045;28;19924;-68
2023/03/21 10:59:00;;;;;;;;;;;;;;;15.43;56.95;96694.41;5061100;28;19967;-67
2023/03/21 11:01:35;;;;;;;;;;;;;;;16.28;53.67;96690.88;5057574;28;20094;-68
2023/03/21 11:04:05;;;;;;;;;;;;;;;15.43;54.17;96697.16;5061061;28;19931;-68
2023/03/21 11:06:32;;;;;;;;;;;;;;;16.86;50.52;96692.06;5060732;28;19925;-67
2023/03/21 11:09:00;;;;;;;;;;;;;;;16.34;51.47;96690.03;5061883;28;20357;-68
2023/03/21 11:11:52;;;;;;;;;;;;;;;16.79;50.32;96692.09;5064921;28;20292;-67
2023/03/21 11:14:43;;;;;;;;;;;;;;;16.65;49.92;96687.44;5053339;28;19923;-67
2023/03/21 11:17:27;;;;;;;;;;;;;;;16.49;51.53;96685.19;5053286;28;19917;-67
2023/03/21 11:19:57;;;;;;;;;;;;;;;15.98;51.82;96686.72;5083291;28;19912;-69
2023/03/21 11:22:24;;;;;;;;;;;;;;;14.67;55.50;96688.19;5065514;28;20344;-68
2023/03/21 11:24:52;;;;;;;;;;;;;;;15.83;53.23;96684.03;5062224;28;20318;-68
2023/03/21 11:27:17;;;;;;;;;;;;;;;16.42;50.78;96677.75;5058878;28;19947;-69
2023/03/21 11:29:45;;;;;;;;;;;;;;;16.87;48.68;96676.25;5063962;28;19916;-69
2023/03/21 11:32:12;;;;;;;;;;;;;;;17.23;48.21;96667.59;5067996;28;19983;-68
2023/03/21 11:34:43;;;;;;;;;;;;;;;16.94;48.78;96662.34;5071936;28;19921;-68
2023/03/21 11:37:16;;;;;;;;;;;;;;;17.60;46.56;96663.25;5065012;28;19961;-68
2023/03/21 11:39:43;;;;;;;;;;;;;;;18.04;46.62;96667.06;5066273;28;19920;-68
2023/03/21 11:42:29;;;;;;;;;;;;;;;18.89;45.22;96664.22;5060527;28;19920;-69
2023/03/21 11:44:59;;;;;;;;;;;;;;;18.57;43.33;96659.94;5081581;28;19938;-68
2023/03/21 11:47:24;;;;;;;;;;;;;;;18.84;42.17;96659.94;5076277;28;19925;-68
2023/03/21 11:49:49;;;;;;;;;;;;;;;18.76;43.01;96660.44;5065504;28;20324;-69
2023/03/21 11:52:37;;;;;;;;;;;;;;;18.56;42.89;96650.06;5062307;28;19951;-68
2023/03/21 11:55:06;;;;;;;;;;;;;;;17.76;44.50;96650.38;5062165;28;19978;-68
2023/03/21 11:57:47;;;;;;;;;;;;;;;18.22;43.28;96648.22;5064375;28;19964;-68
2023/03/21 12:00:16;;;;;;;;;;;;;;;18.28;43.20;96649.28;5059203;28;19990;-69
2023/03/21 12:03:01;;;;;;;;;;;;;;;17.84;43.70;96637.19;5064492;28;19920;-68
2023/03/21 12:05:35;;;;;;;;;;;;;;;17.87;43.97;96643.94;5059218;28;19931;-69
2023/03/21 12:08:06;;;;;;;;;;;;;;;17.42;44.43;96635.78;5063672;28;19924;-69
2023/03/21 12:10:44;;;;;;;;;;;;;;;18.01;43.86;96629.13;5063382;28;20392;-68
2023/03/21 12:13:21;;;;;;;;;;;;;;;18.18;42.91;96632.81;5076466;28;20022;-68
2023/03/21 12:15:55;;;;;;;;;;;;;;;17.17;44.58;96631.28;5082691;28;19916;-69
2023/03/21 12:18:39;;;;;;;;;;;;;;;17.87;44.11;96622.56;5058855;28;20011;-68
2023/03/21 12:21:18;;;;;;;;;;;;;;;17.65;44.30;96621.25;5038682;28;19979;-68
2023/03/21 12:23:50;;;;;;;;;;;;;;;17.62;44.83;96620.09;5052803;28;19916;-68
2023/03/21 12:26:18;;;;;;;;;;;;;;;17.57;45.00;96620.53;5059034;28;19921;-68
2023/03/21 12:28:56;;;;;;;;;;;;;;;17.63;45.36;96612.56;5063957;28;19970;-69
2023/03/21 12:31:32;;;;;;;;;;;;;;;17.16;45.60;96610.34;5058345;28;19923;-68
2023/03/21 12:34:00;;;;;;;;;;;;;;;17.07;46.23;96591.47;5063840;28;19921;-68
2023/03/21 12:36:26;;;;;;;;;;;;;;;17.01;46.06;96601.41;5058568;28;19931;-68
2023/03/21 12:39:03;;;;;;;;;;;;;;;16.59;46.58;96592.31;5062920;28;19920;-68
2023/03/21 12:41:58;;;;;;;;;;;;;;;17.08;45.12;96593.03;5039708;28;19917;-69
2023/03/21 12:44:25;;;;;;;;;;;;;;;17.21;44.83;96584.97;5028708;28;19990;-68
2023/03/21 12:46:54;;;;;;;;;;;;;;;17.42;44.44;96585.94;5043370;28;19921;-68
2023/03/21 12:49:27;;;;;;;;;;;;;;;17.61;44.53;96587.25;5038401;28;19917;-68
2023/03/21 12:52:04;;;;;;;;;;;;;;;17.70;43.68;96579.22;5038698;28;19928;-68
2023/03/21 12:54:38;;;;;;;;;;;;;;;17.38;44.62;96569.38;5031224;28;19923;-68